Time;durP1;ratioP1;P1;durP2;ratioP2;P2;SDS_P1;SDS_P2;PMS_P1;PMS_P2;Temp;Humidity;BMP_temperature;BMP_pressure;BME280_temperature;BME280_humidity;BME280_pressure;Samples;Min_cycle;Max_cycle;Signal;HPM_P1;HPM_P2
2021/07/23 00:00:34;;;;;;;10.93;9.93;;;17.20;99.90;;;;;;5054096;28;20212;-66
2021/07/23 00:03:00;;;;;;;11.53;10.27;;;17.20;99.90;;;;;;5054236;28;20554;-66
2021/07/23 00:05:25;;;;;;;11.30;10.30;;;17.10;99.90;;;;;;5053967;28;20244;-65
2021/07/23 00:07:51;;;;;;;10.77;9.77;;;17.10;99.90;;;;;;5054277;28;20182;-65
2021/07/23 00:10:17;;;;;;;11.17;10.03;;;17.00;99.90;;;;;;5054247;28;20194;-66
2021/07/23 00:12:42;;;;;;;11.60;10.60;;;17.00;99.90;;;;;;5052644;28;20569;-66
2021/07/23 00:15:09;;;;;;;11.50;10.27;;;16.90;99.90;;;;;;5053915;28;20171;-66
2021/07/23 00:17:35;;;;;;;11.10;10.00;;;16.90;99.90;;;;;;5052738;28;20665;-65
2021/07/23 00:20:00;;;;;;;12.10;10.90;;;16.80;99.90;;;;;;5054029;28;20285;-66
2021/07/23 00:22:26;;;;;;;11.50;10.37;;;16.90;99.90;;;;;;5053580;28;20651;-66
2021/07/23 00:24:52;;;;;;;10.60;9.63;;;16.80;99.90;;;;;;5053778;28;20171;-65
2021/07/23 00:27:17;;;;;;;12.33;11.03;;;16.70;99.90;;;;;;5053628;28;20179;-66
2021/07/23 00:29:43;;;;;;;12.40;11.17;;;16.60;99.90;;;;;;5053873;28;20202;-66
2021/07/23 00:32:09;;;;;;;11.17;10.10;;;16.60;99.90;;;;;;5053738;28;20202;-65
2021/07/23 00:34:34;;;;;;;12.07;10.90;;;16.60;99.90;;;;;;5053432;28;20175;-65
2021/07/23 00:37:00;;;;;;;12.50;11.30;;;16.50;99.90;;;;;;5053562;28;20662;-66
2021/07/23 00:39:26;;;;;;;14.40;11.30;;;16.50;99.90;;;;;;5053601;28;20245;-66
2021/07/23 00:41:51;;;;;;;11.27;10.17;;;16.50;99.90;;;;;;5052953;28;20171;-65
2021/07/23 00:44:17;;;;;;;11.10;10.00;;;16.40;99.90;;;;;;5053205;28;20166;-66
2021/07/23 00:46:45;;;;;;;13.73;10.90;;;16.30;99.90;;;;;;5053247;28;20181;-65
2021/07/23 00:49:11;;;;;;;13.40;12.00;;;16.40;99.90;;;;;;5053534;28;20163;-66
2021/07/23 00:51:37;;;;;;;12.90;11.50;;;16.30;99.90;;;;;;5053131;28;20190;-65
2021/07/23 00:54:05;;;;;;;12.20;11.00;;;16.30;99.90;;;;;;5053590;28;20245;-66
2021/07/23 00:56:31;;;;;;;12.27;11.17;;;16.30;99.90;;;;;;5052954;28;20179;-66
2021/07/23 00:58:59;;;;;;;11.23;10.03;;;16.20;99.90;;;;;;5052252;28;20170;-65
2021/07/23 01:01:25;;;;;;;12.40;11.30;;;16.10;99.90;;;;;;5052882;28;20207;-66
2021/07/23 01:03:51;;;;;;;11.43;10.20;;;16.10;99.90;;;;;;5052934;28;20186;-65
2021/07/23 01:06:17;;;;;;;11.60;10.43;;;16.00;99.90;;;;;;5053024;28;20178;-66
2021/07/23 01:08:42;;;;;;;11.97;10.77;;;16.00;99.90;;;;;;5053161;28;20167;-66
2021/07/23 01:11:08;;;;;;;12.07;10.73;;;16.00;99.90;;;;;;5053003;28;20280;-65
2021/07/23 01:13:34;;;;;;;11.87;10.67;;;16.00;99.90;;;;;;5052914;28;20177;-65
2021/07/23 01:16:01;;;;;;;12.20;10.43;;;16.00;99.90;;;;;;5052792;28;20179;-65
2021/07/23 01:18:27;;;;;;;11.33;10.13;;;15.90;99.90;;;;;;5053198;28;20171;-65
2021/07/23 01:20:53;;;;;;;14.27;11.50;;;15.90;99.90;;;;;;5052439;28;20222;-66
2021/07/23 01:23:32;;;;;;;11.37;10.27;;;15.90;99.90;;;;;;5052932;28;20251;-65
2021/07/23 01:26:02;;;;;;;12.43;11.13;;;15.80;99.90;;;;;;5052536;28;20540;-65
2021/07/23 01:28:29;;;;;;;12.97;11.87;;;15.80;99.90;;;;;;5052318;28;20644;-66
2021/07/23 01:30:57;;;;;;;12.00;10.53;;;15.80;99.90;;;;;;5052367;28;20194;-65
2021/07/23 01:33:22;;;;;;;13.03;11.80;;;15.80;99.90;;;;;;5052635;28;20266;-65
2021/07/23 01:35:48;;;;;;;13.27;10.87;;;15.80;99.90;;;;;;5053236;28;20209;-66
2021/07/23 01:38:15;;;;;;;12.10;10.73;;;15.70;99.90;;;;;;5052621;28;20182;-65
2021/07/23 01:40:42;;;;;;;12.77;10.67;;;15.70;99.90;;;;;;5052319;28;20256;-65
2021/07/23 01:43:08;;;;;;;12.23;11.03;;;15.70;99.90;;;;;;5052221;28;20175;-65
2021/07/23 01:45:33;;;;;;;9.80;8.93;;;15.60;99.90;;;;;;5052372;28;20242;-65
2021/07/23 01:47:59;;;;;;;11.17;9.90;;;15.60;99.90;;;;;;5052238;28;20175;-65
2021/07/23 01:50:25;;;;;;;10.87;9.87;;;15.60;99.90;;;;;;5052121;28;20571;-66
2021/07/23 01:52:50;;;;;;;11.53;10.43;;;15.60;99.90;;;;;;5051580;28;20232;-65
2021/07/23 01:55:16;;;;;;;11.53;10.40;;;15.60;99.90;;;;;;5051307;28;20177;-65
2021/07/23 01:57:42;;;;;;;11.97;9.57;;;15.50;99.90;;;;;;5052186;28;20261;-65
2021/07/23 02:00:08;;;;;;;11.17;10.07;;;15.50;99.90;;;;;;5052087;28;20213;-65
2021/07/23 02:02:34;;;;;;;9.93;9.03;;;15.50;99.90;;;;;;5051919;28;20715;-66
2021/07/23 02:05:00;;;;;;;12.73;10.43;;;15.40;99.90;;;;;;5051948;28;20258;-65
2021/07/23 02:07:27;;;;;;;10.47;9.67;;;15.50;99.90;;;;;;5051945;28;20231;-65
2021/07/23 02:09:53;;;;;;;10.43;9.43;;;15.40;99.90;;;;;;5051169;28;20290;-68
2021/07/23 02:12:18;;;;;;;12.43;10.77;;;15.40;99.90;;;;;;5052740;28;20318;-70
2021/07/23 02:14:44;;;;;;;11.63;10.53;;;15.40;99.90;;;;;;5052591;28;20331;-70
2021/07/23 02:17:10;;;;;;;10.47;9.57;;;15.40;99.90;;;;;;5051569;28;20190;-68
2021/07/23 02:19:35;;;;;;;11.27;10.07;;;15.40;99.90;;;;;;5052734;28;20207;-68
2021/07/23 02:22:01;;;;;;;10.87;9.73;;;15.40;99.90;;;;;;5053121;28;20171;-69
2021/07/23 02:24:26;;;;;;;10.27;9.37;;;15.30;99.90;;;;;;5052322;28;20178;-70
2021/07/23 02:26:53;;;;;;;12.33;11.07;;;15.40;99.90;;;;;;5052834;28;20632;-68
2021/07/23 02:29:19;;;;;;;11.20;10.20;;;15.30;99.90;;;;;;5052385;28;20173;-70
2021/07/23 02:31:45;;;;;;;11.27;10.27;;;15.30;99.90;;;;;;5051081;28;20631;-69
2021/07/23 02:34:11;;;;;;;10.90;10.00;;;15.30;99.90;;;;;;5052510;28;20246;-68
2021/07/23 02:36:36;;;;;;;10.80;9.80;;;15.20;99.90;;;;;;5052323;28;20170;-68
2021/07/23 02:39:03;;;;;;;10.67;9.73;;;15.20;99.90;;;;;;5052869;28;20175;-70
2021/07/23 02:41:29;;;;;;;10.53;9.60;;;15.20;99.90;;;;;;5052127;28;20298;-69
2021/07/23 02:43:54;;;;;;;10.63;9.73;;;15.10;99.90;;;;;;5052579;28;20253;-68
2021/07/23 02:46:20;;;;;;;12.23;11.10;;;15.00;99.90;;;;;;5052328;28;20179;-68
2021/07/23 02:48:45;;;;;;;11.27;10.10;;;15.00;99.90;;;;;;5052174;28;20694;-68
2021/07/23 02:51:11;;;;;;;11.03;10.03;;;15.00;99.90;;;;;;5086018;22;20717;-65
2021/07/23 02:53:37;;;;;;;10.93;9.90;;;15.00;99.90;;;;;;5045274;28;20186;-67
2021/07/23 02:56:03;;;;;;;11.17;9.97;;;14.90;99.90;;;;;;5047598;28;20806;-66
2021/07/23 02:58:28;;;;;;;11.00;9.93;;;14.90;99.90;;;;;;5039847;28;20179;-66
2021/07/23 03:00:54;;;;;;;10.77;9.67;;;14.90;99.90;;;;;;5032416;28;20247;-67
2021/07/23 03:03:19;;;;;;;11.90;10.80;;;14.80;99.90;;;;;;5045642;28;20663;-66
2021/07/23 03:05:45;;;;;;;10.93;9.93;;;14.80;99.90;;;;;;5051690;28;20185;-66
2021/07/23 03:08:11;;;;;;;12.73;11.53;;;14.80;99.90;;;;;;5054468;28;20182;-66
2021/07/23 03:10:36;;;;;;;11.33;10.27;;;14.70;99.90;;;;;;5056344;28;20683;-67
2021/07/23 03:13:02;;;;;;;12.20;10.77;;;14.70;99.90;;;;;;5056201;28;20175;-67
2021/07/23 03:15:27;;;;;;;12.00;10.90;;;14.70;99.90;;;;;;5055923;28;20720;-67
2021/07/23 03:17:53;;;;;;;11.67;9.90;;;14.60;99.90;;;;;;5056401;28;20593;-67
2021/07/23 03:20:19;;;;;;;11.77;10.57;;;14.60;99.90;;;;;;5055683;28;20234;-67
2021/07/23 03:22:44;;;;;;;11.20;10.20;;;14.50;99.90;;;;;;5055848;28;20639;-66
2021/07/23 03:25:11;;;;;;;11.77;10.63;;;14.50;99.90;;;;;;5055847;28;20194;-67
2021/07/23 03:27:37;;;;;;;12.23;11.03;;;14.50;99.90;;;;;;5056163;28;20221;-66
2021/07/23 03:30:04;;;;;;;13.77;11.50;;;14.50;99.90;;;;;;5055994;28;20648;-67
2021/07/23 03:32:29;;;;;;;11.47;10.37;;;14.50;99.90;;;;;;5055632;28;20541;-66
2021/07/23 03:34:55;;;;;;;12.17;11.07;;;14.50;99.90;;;;;;5054201;28;20185;-67
2021/07/23 03:37:20;;;;;;;11.63;10.60;;;14.40;99.90;;;;;;5055092;28;20183;-66
2021/07/23 03:39:46;;;;;;;11.37;10.27;;;14.30;99.90;;;;;;5055562;28;20202;-66
2021/07/23 03:42:12;;;;;;;13.10;11.17;;;14.30;99.90;;;;;;5055368;28;20178;-66
2021/07/23 03:44:37;;;;;;;12.50;9.90;;;14.30;99.90;;;;;;5054595;28;20666;-67
2021/07/23 03:47:03;;;;;;;12.03;10.47;;;14.40;99.90;;;;;;5055117;28;20186;-67
2021/07/23 03:49:29;;;;;;;10.97;9.87;;;14.30;99.90;;;;;;5054960;28;20171;-67
2021/07/23 03:51:56;;;;;;;11.57;10.50;;;14.30;99.90;;;;;;5055407;28;20209;-67
2021/07/23 03:54:22;;;;;;;12.50;11.40;;;14.30;99.90;;;;;;5054827;28;20197;-67
2021/07/23 03:56:47;;;;;;;12.53;11.23;;;14.30;99.90;;;;;;5055233;28;20438;-67
2021/07/23 03:59:13;;;;;;;12.90;11.60;;;14.30;99.90;;;;;;5054983;28;20167;-66
2021/07/23 04:01:40;;;;;;;12.57;11.30;;;14.30;99.90;;;;;;5055004;28;20686;-67
2021/07/23 04:04:05;;;;;;;12.07;10.97;;;14.20;99.90;;;;;;5054496;28;20593;-67
2021/07/23 04:06:31;;;;;;;13.33;11.57;;;14.20;99.90;;;;;;5052984;28;20178;-67
2021/07/23 04:08:56;;;;;;;12.13;10.97;;;14.30;99.90;;;;;;5054732;28;20237;-67
2021/07/23 04:11:27;;;;;;;11.30;10.30;;;14.20;99.90;;;;;;5054624;28;20286;-67
2021/07/23 04:13:53;;;;;;;11.80;10.60;;;14.20;99.90;;;;;;5054578;28;20185;-66
2021/07/23 04:16:18;;;;;;;11.77;10.77;;;14.20;99.90;;;;;;5054491;28;20590;-66
2021/07/23 04:18:44;;;;;;;12.73;11.53;;;14.30;99.90;;;;;;5053678;28;20182;-67
2021/07/23 04:21:10;;;;;;;12.90;11.70;;;14.20;99.90;;;;;;5054495;28;20214;-67
2021/07/23 04:23:35;;;;;;;14.23;11.10;;;14.20;99.90;;;;;;5053897;28;20197;-66
2021/07/23 04:26:01;;;;;;;12.20;11.00;;;14.20;99.90;;;;;;5054675;28;20515;-66
2021/07/23 04:28:26;;;;;;;12.13;11.00;;;14.20;99.90;;;;;;5054172;28;20211;-67
2021/07/23 04:30:52;;;;;;;12.57;11.33;;;14.30;99.90;;;;;;5054102;28;20281;-67
2021/07/23 04:33:18;;;;;;;12.53;11.43;;;14.40;99.90;;;;;;5053756;28;20186;-66
2021/07/23 04:35:43;;;;;;;12.83;11.30;;;14.40;99.90;;;;;;5053540;28;20643;-67
2021/07/23 04:38:09;;;;;;;13.63;11.23;;;14.50;99.90;;;;;;5052605;28;20185;-67
2021/07/23 04:40:36;;;;;;;13.40;12.00;;;14.60;99.90;;;;;;5053701;28;20671;-67
2021/07/23 04:43:01;;;;;;;13.30;11.37;;;14.80;99.90;;;;;;5052864;28;20159;-66
2021/07/23 04:45:27;;;;;;;11.77;10.57;;;15.00;99.90;;;;;;5052513;28;20224;-67
2021/07/23 04:47:53;;;;;;;11.27;10.20;;;15.20;99.90;;;;;;5054214;28;20206;-67
2021/07/23 04:50:18;;;;;;;11.40;10.37;;;15.30;99.90;;;;;;5053337;28;20214;-67
2021/07/23 04:52:44;;;;;;;12.90;10.23;;;15.20;99.90;;;;;;5053814;28;20536;-67
2021/07/23 04:55:12;;;;;;;12.37;9.97;;;15.30;99.90;;;;;;5053409;28;20655;-67
2021/07/23 04:57:45;;;;;;;12.53;11.30;;;15.30;99.90;;;;;;5053644;28;20178;-67
2021/07/23 05:00:11;;;;;;;11.73;10.37;;;15.50;99.90;;;;;;5053283;28;20202;-67
2021/07/23 05:02:40;;;;;;;11.23;10.13;;;15.70;99.90;;;;;;5053640;28;20945;-67
2021/07/23 05:05:12;;;;;;;10.13;9.23;;;15.90;99.90;;;;;;5052851;28;20185;-67
2021/07/23 05:07:39;;;;;;;13.23;11.67;;;16.00;99.90;;;;;;5053300;28;20178;-66
2021/07/23 05:10:06;;;;;;;10.60;9.70;;;16.20;99.90;;;;;;5053039;28;20199;-67
2021/07/23 05:12:32;;;;;;;11.27;10.37;;;16.30;99.90;;;;;;5053175;28;20220;-68
2021/07/23 05:14:57;;;;;;;11.43;10.20;;;16.50;99.90;;;;;;5053845;28;20679;-67
2021/07/23 05:17:24;;;;;;;11.97;10.73;;;16.60;99.90;;;;;;5054262;28;20175;-68
2021/07/23 05:19:50;;;;;;;11.73;10.83;;;16.70;99.90;;;;;;5054045;28;20202;-68
2021/07/23 05:22:16;;;;;;;12.40;10.30;;;16.90;99.90;;;;;;5053952;28;20178;-67
2021/07/23 05:24:42;;;;;;;10.80;9.70;;;17.10;99.90;;;;;;5053552;28;20660;-67
2021/07/23 05:27:07;;;;;;;10.57;9.67;;;17.20;99.90;;;;;;5054258;28;20193;-67
2021/07/23 05:29:33;;;;;;;12.33;11.00;;;17.40;99.90;;;;;;5053172;28;20175;-66
2021/07/23 05:31:58;;;;;;;10.77;9.83;;;17.60;99.90;;;;;;5053930;28;20237;-66
2021/07/23 05:34:24;;;;;;;11.43;9.77;;;17.60;99.90;;;;;;5053190;28;20174;-67
2021/07/23 05:36:50;;;;;;;10.50;9.60;;;17.60;99.90;;;;;;5053974;28;20505;-66
2021/07/23 05:39:15;;;;;;;11.57;10.50;;;17.50;99.90;;;;;;5054091;28;20273;-66
2021/07/23 05:41:41;;;;;;;11.40;10.30;;;17.40;99.90;;;;;;5053386;28;20207;-65
2021/07/23 05:44:07;;;;;;;11.37;10.37;;;17.30;99.90;;;;;;5052320;28;20187;-67
2021/07/23 05:46:33;;;;;;;10.50;9.53;;;17.40;99.90;;;;;;5053457;28;20253;-70
2021/07/23 05:48:58;;;;;;;10.67;9.77;;;17.60;99.90;;;;;;5051819;28;20178;-67
2021/07/23 05:51:24;;;;;;;11.17;10.17;;;17.70;99.90;;;;;;5052254;28;20206;-67
2021/07/23 05:53:50;;;;;;;11.10;10.20;;;17.90;99.90;;;;;;5053267;28;20726;-66
2021/07/23 05:56:16;;;;;;;10.90;9.37;;;18.00;99.90;;;;;;5051361;28;20201;-66
2021/07/23 05:58:41;;;;;;;10.17;9.17;;;18.30;99.90;;;;;;5051749;28;20176;-66
2021/07/23 06:01:08;;;;;;;11.50;9.70;;;18.50;99.90;;;;;;5051993;28;20213;-67
2021/07/23 06:03:35;;;;;;;12.07;9.57;;;18.90;99.90;;;;;;5051766;28;20228;-67
2021/07/23 06:06:01;;;;;;;9.98;9.10;;;19.10;99.90;;;;;;5052337;28;20179;-68
2021/07/23 06:08:27;;;;;;;12.00;10.25;;;19.50;99.90;;;;;;5052452;28;20178;-67
2021/07/23 06:10:53;;;;;;;9.57;8.88;;;19.70;99.90;;;;;;5051963;28;20264;-66
2021/07/23 06:13:18;;;;;;;9.52;8.73;;;20.00;99.90;;;;;;5051084;28;20196;-66
2021/07/23 06:15:44;;;;;;;11.10;10.07;;;20.20;99.90;;;;;;5052292;28;20262;-66
2021/07/23 06:18:09;;;;;;;8.98;8.18;;;20.50;99.90;;;;;;5052866;28;20178;-67
2021/07/23 06:20:35;;;;;;;9.13;8.27;;;20.90;99.90;;;;;;5052263;28;20214;-68
2021/07/23 06:23:00;;;;;;;9.15;8.25;;;21.00;99.90;;;;;;5052683;28;20593;-68
2021/07/23 06:25:26;;;;;;;9.02;8.20;;;21.20;99.90;;;;;;5051462;28;20171;-67
2021/07/23 06:27:52;;;;;;;9.63;8.82;;;21.20;99.90;;;;;;5052495;28;20498;-68
2021/07/23 06:30:17;;;;;;;8.73;8.02;;;21.60;99.90;;;;;;5051564;28;20202;-68
2021/07/23 06:32:43;;;;;;;9.73;8.82;;;21.80;99.90;;;;;;5050727;28;20274;-68
2021/07/23 06:35:09;;;;;;;8.38;7.68;;;22.10;99.90;;;;;;5051972;28;20176;-68
2021/07/23 06:37:35;;;;;;;8.65;7.80;;;22.20;99.90;;;;;;5052404;28;20194;-67
2021/07/23 06:40:02;;;;;;;8.73;7.93;;;22.30;99.90;;;;;;5051945;28;20214;-68
2021/07/23 06:42:27;;;;;;;8.98;8.27;;;22.80;99.90;;;;;;5051600;28;20182;-68
2021/07/23 06:44:53;;;;;;;8.55;7.75;;;23.10;99.90;;;;;;5051160;28;20178;-67
2021/07/23 06:47:20;;;;;;;10.35;8.50;;;23.50;99.90;;;;;;5051498;28;20167;-68
2021/07/23 06:49:47;;;;;;;9.80;8.82;;;23.50;99.90;;;;;;5051067;28;20178;-67
2021/07/23 06:52:13;;;;;;;9.02;8.18;;;23.70;99.90;;;;;;5051854;28;20590;-67
2021/07/23 06:54:38;;;;;;;9.23;8.43;;;23.60;99.90;;;;;;5050880;28;20217;-68
2021/07/23 06:57:04;;;;;;;9.20;8.40;;;23.40;99.90;;;;;;5051646;28;20185;-68
2021/07/23 06:59:31;;;;;;;8.93;8.13;;;23.30;99.90;;;;;;5051075;28;20187;-68
2021/07/23 07:01:59;;;;;;;9.63;8.63;;;23.40;99.90;;;;;;5051601;28;20647;-68
2021/07/23 07:04:25;;;;;;;10.13;8.32;;;23.40;99.90;;;;;;5050881;28;20225;-68
2021/07/23 07:06:53;;;;;;;10.10;7.88;;;23.70;99.90;;;;;;5051755;28;20193;-68
2021/07/23 07:09:19;;;;;;;8.50;7.63;;;24.20;99.90;;;;;;5051375;28;20225;-68
2021/07/23 07:11:44;;;;;;;8.90;8.20;;;24.80;99.90;;;;;;5051568;28;20611;-67
2021/07/23 07:14:10;;;;;;;8.48;7.68;;;25.10;99.90;;;;;;5050804;28;20266;-68
2021/07/23 07:16:36;;;;;;;9.60;8.70;;;24.90;99.90;;;;;;5051558;28;20178;-67
2021/07/23 07:19:01;;;;;;;8.68;7.93;;;24.80;99.90;;;;;;5050798;28;20269;-68
2021/07/23 07:21:27;;;;;;;9.50;8.00;;;24.90;99.90;;;;;;5050726;28;20218;-68
2021/07/23 07:23:52;;;;;;;8.95;8.10;;;25.20;99.90;;;;;;5050911;28;20175;-68
2021/07/23 07:26:18;;;;;;;8.73;8.00;;;25.30;99.90;;;;;;5051393;28;20174;-68
2021/07/23 07:28:43;;;;;;;8.85;7.95;;;25.20;99.90;;;;;;5050516;28;20707;-67
2021/07/23 07:31:14;;;;;;;8.88;7.97;;;25.50;99.90;;;;;;5051200;28;20229;-67
2021/07/23 07:33:39;;;;;;;8.85;8.07;;;25.80;99.90;;;;;;5049424;28;20206;-68
2021/07/23 07:36:05;;;;;;;8.07;7.38;;;26.40;99.90;;;;;;5051297;28;20652;-69
2021/07/23 07:38:31;;;;;;;9.68;8.50;;;26.80;99.90;;;;;;5050744;28;20282;-68
2021/07/23 07:40:56;;;;;;;8.68;7.78;;;27.10;99.90;;;;;;5050933;28;20585;-67
2021/07/23 07:43:22;;;;;;;10.43;9.43;;;27.40;99.90;;;;;;5050777;28;20258;-68
2021/07/23 07:45:47;;;;;;;9.40;8.52;;;27.60;99.90;;;;;;5050895;28;20182;-68
2021/07/23 07:48:13;;;;;;;8.07;7.38;;;27.60;99.90;;;;;;5050795;28;20182;-68
2021/07/23 07:50:39;;;;;;;8.80;8.05;;;27.30;99.90;;;;;;5050543;28;20206;-68
2021/07/23 07:53:12;;;;;;;8.45;7.68;;;27.50;99.90;;;;;;5051182;28;20178;-67
2021/07/23 07:55:38;;;;;;;9.77;9.07;;;27.10;99.90;;;;;;5053274;28;20548;-68
2021/07/23 07:58:04;;;;;;;8.45;7.75;;;27.30;99.90;;;;;;5054520;28;20278;-68
2021/07/23 08:00:29;;;;;;;9.70;8.80;;;27.10;99.90;;;;;;5054300;28;20642;-68
2021/07/23 08:02:55;;;;;;;10.63;9.63;;;26.90;99.90;;;;;;5054118;28;20183;-68
2021/07/23 08:05:21;;;;;;;9.95;9.07;;;26.90;99.90;;;;;;5053886;28;20166;-67
2021/07/23 08:07:46;;;;;;;8.93;8.18;;;26.70;99.90;;;;;;5053939;28;20179;-69
2021/07/23 08:10:14;;;;;;;8.68;7.88;;;26.80;99.90;;;;;;5054262;28;20735;-69
2021/07/23 08:12:40;;;;;;;9.02;8.23;;;27.20;99.90;;;;;;5053960;28;20171;-68
2021/07/23 08:15:07;;;;;;;7.53;6.93;;;27.20;99.90;;;;;;5053412;28;20908;-68
2021/07/23 08:17:32;;;;;;;9.10;8.30;;;27.60;99.90;;;;;;5053801;28;20518;-68
2021/07/23 08:20:02;;;;;;;8.57;7.78;;;27.80;99.90;;;;;;5053406;28;20218;-68
2021/07/23 08:22:30;;;;;;;8.25;7.55;;;28.30;99.90;;;;;;5052550;28;20178;-68
2021/07/23 08:24:56;;;;;;;10.82;7.57;;;28.40;99.90;;;;;;5053616;28;20187;-68
2021/07/23 08:27:22;;;;;;;7.85;7.05;;;28.50;99.90;;;;;;5053765;28;20667;-68
2021/07/23 08:29:48;;;;;;;8.57;7.25;;;28.90;99.90;;;;;;5053716;28;20663;-68
2021/07/23 08:32:14;;;;;;;8.77;7.18;;;28.90;99.90;;;;;;5053900;28;20173;-68
2021/07/23 08:34:40;;;;;;;7.18;6.57;;;29.00;99.90;;;;;;5053717;28;20171;-68
2021/07/23 08:37:06;;;;;;;8.43;7.68;;;29.40;99.90;;;;;;5052963;28;20178;-68
2021/07/23 08:39:33;;;;;;;6.57;6.07;;;29.60;99.90;;;;;;5053465;28;20254;-68
2021/07/23 08:41:58;;;;;;;7.82;7.05;;;29.80;99.90;;;;;;5053615;28;20770;-68
2021/07/23 08:44:28;;;;;;;7.45;6.78;;;30.00;99.90;;;;;;5052321;28;20257;-68
2021/07/23 08:46:53;;;;;;;6.32;5.82;;;30.10;99.90;;;;;;5053677;28;20174;-69
2021/07/23 08:49:19;;;;;;;7.78;6.78;;;30.20;99.90;;;;;;5053426;28;20183;-69
2021/07/23 08:54:13;;;;;;;7.10;6.18;;;30.00;99.90;;;;;;5031838;28;20282;-67
2021/07/23 08:56:44;;;;;;;6.60;5.97;;;30.00;99.90;;;;;;5015560;28;20330;-66
2021/07/23 08:59:10;;;;;;;6.72;6.13;;;30.40;99.90;;;;;;5033365;28;20171;-67
2021/07/23 09:01:55;;;;;;;6.32;5.72;;;30.80;99.90;;;;;;5032934;28;20597;-67
2021/07/23 09:04:29;;;;;;;6.60;6.00;;;30.40;99.90;;;;;;5031572;28;20178;-66
2021/07/23 09:07:17;;;;;;;6.75;5.97;;;29.80;99.90;;;;;;5033338;28;20243;-66
2021/07/23 09:09:54;;;;;;;6.28;5.70;;;29.70;99.90;;;;;;5033062;28;20175;-66
2021/07/23 09:12:19;;;;;;;7.05;6.45;;;30.00;99.90;;;;;;5033193;28;20532;-67
2021/07/23 09:14:45;;;;;;;7.47;6.85;;;30.00;99.90;;;;;;5032800;28;20183;-66
2021/07/23 09:17:11;;;;;;;7.57;6.63;;;30.00;99.90;;;;;;5033108;28;20172;-66
2021/07/23 09:19:38;;;;;;;7.50;6.63;;;30.20;99.90;;;;;;5032873;28;20202;-67
2021/07/23 09:22:05;;;;;;;6.25;5.65;;;30.70;99.90;;;;;;5033075;28;20660;-67
2021/07/23 09:24:52;;;;;;;6.82;6.22;;;30.80;99.90;;;;;;5032571;28;20177;-66
2021/07/23 09:27:38;;;;;;;8.00;6.15;;;31.20;99.90;;;;;;5032872;28;20175;-67
2021/07/23 09:30:09;;;;;;;6.97;6.38;;;31.50;99.90;;;;;;5032800;28;20562;-67
2021/07/23 09:32:35;;;;;;;7.18;6.55;;;31.50;99.90;;;;;;5032758;28;20168;-66
2021/07/23 09:35:11;;;;;;;6.95;6.35;;;31.10;99.90;;;;;;5032586;28;20526;-67
2021/07/23 09:37:56;;;;;;;6.78;6.18;;;31.20;99.90;;;;;;5032549;28;20241;-68
2021/07/23 09:40:23;;;;;;;6.75;6.25;;;30.90;99.90;;;;;;5032394;28;20206;-66
2021/07/23 09:42:59;;;;;;;7.53;6.93;;;30.30;99.90;;;;;;5032959;28;20179;-67
2021/07/23 09:45:30;;;;;;;7.10;6.50;;;29.80;99.90;;;;;;5032127;28;20546;-66
2021/07/23 09:48:07;;;;;;;8.10;6.50;;;30.00;99.90;;;;;;5032735;28;20163;-67
2021/07/23 09:50:39;;;;;;;7.30;6.70;;;30.60;99.90;;;;;;5032644;28;20195;-67
2021/07/23 09:53:07;;;;;;;8.77;7.88;;;31.00;99.90;;;;;;5032434;28;20274;-67
2021/07/23 09:55:34;;;;;;;10.73;6.72;;;31.00;99.90;;;;;;5031985;28;20168;-66
2021/07/23 09:58:06;;;;;;;6.85;6.25;;;31.00;99.90;;;;;;5032438;28;20179;-66
2021/07/23 10:00:38;;;;;;;8.13;6.88;;;31.20;99.90;;;;;;5032015;28;20206;-66
2021/07/23 10:03:16;;;;;;;6.70;6.07;;;31.00;99.90;;;;;;5031518;28;20199;-67
2021/07/23 10:05:58;;;;;;;7.70;7.00;;;30.90;99.90;;;;;;5031671;28;20218;-65
2021/07/23 10:08:30;;;;;;;8.43;7.70;;;31.00;99.90;;;;;;5031273;28;20556;-65
2021/07/23 10:10:56;;;;;;;7.03;6.20;;;31.10;99.90;;;;;;5031980;28;20203;-65
2021/07/23 10:13:28;;;;;;;7.55;6.90;;;31.20;99.90;;;;;;5031723;28;20225;-65
2021/07/23 10:15:54;;;;;;;6.82;6.32;;;31.50;99.90;;;;;;5031347;28;20229;-65
2021/07/23 10:18:22;;;;;;;8.18;7.47;;;32.00;99.90;;;;;;5031313;28;20179;-65
2021/07/23 10:20:48;;;;;;;7.75;7.05;;;32.00;99.90;;;;;;5031607;28;20235;-65
2021/07/23 10:23:22;;;;;;;7.20;6.70;;;31.90;99.90;;;;;;5031611;28;20180;-65
2021/07/23 10:25:50;;;;;;;13.10;8.05;;;32.00;99.90;;;;;;5030494;28;20660;-65
2021/07/23 10:28:41;;;;;;;8.23;7.40;;;31.60;99.90;;;;;;5030743;28;20648;-65
2021/07/23 10:31:21;;;;;;;9.73;8.05;;;31.40;99.90;;;;;;5031599;28;20226;-65
2021/07/23 10:33:51;;;;;;;7.57;6.97;;;31.50;99.90;;;;;;5030439;28;20172;-65
2021/07/23 10:36:26;;;;;;;8.80;8.00;;;31.50;99.90;;;;;;5031566;28;20176;-65
2021/07/23 10:39:09;;;;;;;7.90;7.18;;;31.70;99.90;;;;;;5031119;28;20548;-65
2021/07/23 10:41:39;;;;;;;8.55;7.75;;;31.50;99.90;;;;;;5030536;28;20310;-66
2021/07/23 10:44:32;;;;;;;8.23;7.45;;;32.00;99.90;;;;;;5031036;28;20199;-65
2021/07/23 10:47:02;;;;;;;8.45;7.15;;;32.30;99.90;;;;;;5030823;28;20214;-65
2021/07/23 10:49:30;;;;;;;7.88;7.07;;;32.40;99.90;;;;;;5031100;28;20180;-65
2021/07/23 10:52:00;;;;;;;10.02;9.13;;;32.20;99.90;;;;;;5031247;28;20199;-64
2021/07/23 10:54:30;;;;;;;7.22;6.63;;;31.90;99.90;;;;;;5030997;28;20187;-65
2021/07/23 10:57:01;;;;;;;7.78;7.05;;;32.00;99.90;;;;;;5031325;28;20183;-64
2021/07/23 10:59:39;;;;;;;8.15;7.05;;;32.10;99.90;;;;;;5031040;28;20222;-64
2021/07/23 11:02:10;;;;;;;7.90;7.20;;;32.00;99.90;;;;;;5030597;28;20348;-65
2021/07/23 11:04:36;;;;;;;9.02;7.28;;;32.30;99.90;;;;;;5029850;28;20184;-65
2021/07/23 11:07:03;;;;;;;7.90;7.20;;;32.70;99.90;;;;;;5031491;28;20191;-65
2021/07/23 11:09:34;;;;;;;9.25;6.78;;;33.10;99.90;;;;;;5030578;28;20180;-65
2021/07/23 11:12:19;;;;;;;9.13;8.10;;;33.80;99.90;;;;;;5030662;28;20198;-65
2021/07/23 11:15:02;;;;;;;8.52;7.53;;;34.40;99.90;;;;;;5031001;28;20198;-64
2021/07/23 11:17:29;;;;;;;8.85;7.07;;;34.30;99.90;;;;;;5030325;28;20195;-65
2021/07/23 11:20:01;;;;;;;8.43;7.63;;;34.40;99.90;;;;;;5030467;28;20198;-65
2021/07/23 11:22:29;;;;;;;10.23;8.63;;;34.20;99.90;;;;;;5031418;28;20172;-65
2021/07/23 11:25:00;;;;;;;8.18;7.47;;;33.80;99.90;;;;;;5029830;28;20590;-66
2021/07/23 11:27:31;;;;;;;9.05;7.57;;;33.60;99.90;;;;;;5029447;28;20176;-65
2021/07/23 11:29:58;;;;;;;9.25;8.10;;;33.20;99.90;;;;;;5034785;28;20264;-65
2021/07/23 11:32:24;;;;;;;8.10;6.97;;;33.30;99.90;;;;;;5034979;28;20326;-65
2021/07/23 11:35:08;;;;;;;7.63;6.80;;;33.80;99.90;;;;;;5034689;28;20270;-65
2021/07/23 11:37:36;;;;;;;7.28;6.65;;;34.10;99.90;;;;;;5034368;28;20266;-65
2021/07/23 11:40:11;;;;;;;9.23;7.93;;;34.10;99.90;;;;;;5034946;28;20568;-65
2021/07/23 11:42:50;;;;;;;8.25;7.13;;;33.20;99.90;;;;;;5034234;28;20201;-65
2021/07/23 11:45:17;;;;;;;7.57;6.88;;;32.80;99.90;;;;;;5034602;28;20210;-65
2021/07/23 11:47:56;;;;;;;7.75;7.03;;;32.80;99.90;;;;;;5034868;28;20257;-64
2021/07/23 11:50:24;;;;;;;7.45;6.78;;;33.40;99.90;;;;;;5033167;28;20214;-65
2021/07/23 11:53:02;;;;;;;7.00;6.40;;;33.90;99.90;;;;;;5034625;28;20183;-64
2021/07/23 11:55:42;;;;;;;7.72;6.95;;;33.80;99.90;;;;;;5033800;28;20277;-65
2021/07/23 11:58:19;;;;;;;8.38;7.57;;;33.50;99.90;;;;;;5034724;28;20179;-64
2021/07/23 12:00:44;;;;;;;12.70;7.78;;;32.80;99.90;;;;;;5034145;28;20293;-64
2021/07/23 12:03:16;;;;;;;7.45;6.75;;;32.30;99.90;;;;;;5034686;28;20218;-65
2021/07/23 12:05:42;;;;;;;9.25;7.63;;;32.20;99.90;;;;;;5033805;28;20186;-64
2021/07/23 12:08:07;;;;;;;8.45;7.65;;;32.10;99.90;;;;;;5034321;28;20183;-64
2021/07/23 12:10:33;;;;;;;8.45;7.55;;;32.10;99.90;;;;;;5034157;28;20287;-63
2021/07/23 12:13:04;;;;;;;7.90;7.20;;;32.10;99.90;;;;;;5034159;28;20187;-65
2021/07/23 12:15:30;;;;;;;7.63;6.93;;;32.00;99.90;;;;;;5033449;28;20178;-64
2021/07/23 12:17:56;;;;;;;9.27;8.48;;;32.20;99.90;;;;;;5033922;28;20183;-64
2021/07/23 12:20:28;;;;;;;8.13;7.28;;;32.30;99.90;;;;;;5033156;28;20704;-65
2021/07/23 12:23:01;;;;;;;8.48;7.57;;;32.70;99.90;;;;;;5014447;28;20204;-65
2021/07/23 12:25:28;;;;;;;9.23;7.60;;;32.80;99.90;;;;;;5027730;28;20599;-64
2021/07/23 12:28:14;;;;;;;8.45;6.88;;;32.80;99.90;;;;;;5034183;28;20183;-64
2021/07/23 12:30:41;;;;;;;8.32;7.50;;;32.60;99.90;;;;;;5032886;28;20290;-66
2021/07/23 12:33:23;;;;;;;9.13;7.45;;;32.90;99.90;;;;;;5034112;28;20700;-64
2021/07/23 12:36:01;;;;;;;7.75;7.00;;;32.80;99.90;;;;;;5032969;28;20176;-64
2021/07/23 12:38:30;;;;;;;8.13;6.97;;;33.00;99.90;;;;;;5032775;28;20233;-65
2021/07/23 12:40:59;;;;;;;7.40;6.78;;;33.30;99.90;;;;;;5032902;28;20206;-65
2021/07/23 12:43:26;;;;;;;7.65;6.55;;;33.40;99.90;;;;;;5033743;28;20755;-65